createdAt,value
2023-04-17T00:08:29.208Z,100.00
2023-04-17T00:23:22.114Z,100.00
2023-04-17T00:38:14.232Z,100.00
2023-04-17T00:53:05.564Z,100.00
2023-04-17T01:07:57.279Z,100.00
2023-04-17T01:22:50.905Z,100.00
2023-04-17T01:37:45.540Z,100.00
2023-04-17T01:52:38.679Z,100.00
2023-04-17T02:07:31.181Z,100.00
2023-04-17T02:22:23.135Z,100.00
2023-04-17T02:37:14.492Z,100.00
2023-04-17T02:52:08.443Z,100.00
2023-04-17T03:07:01.948Z,100.00
2023-04-17T03:22:08.383Z,100.00
2023-04-17T03:37:03.992Z,100.00
2023-04-17T03:51:56.078Z,100.00
2023-04-17T04:06:48.194Z,100.00
2023-04-17T04:21:39.928Z,100.00
2023-04-17T04:36:31.257Z,100.00
2023-04-17T04:51:23.339Z,100.00
2023-04-17T05:06:15.456Z,100.00
2023-04-17T05:21:06.962Z,100.00
2023-04-17T05:50:51.560Z,100.00
2023-04-17T06:05:43.701Z,100.00
2023-04-17T06:20:36.617Z,100.00
2023-04-17T06:35:27.370Z,100.00
2023-04-17T06:50:19.983Z,99.14
2023-04-17T07:34:58.310Z,98.08
2023-04-17T09:20:00.752Z,84.35
2023-04-17T10:04:51.588Z,76.87
2023-04-17T16:13:21.687Z,65.54
2023-04-17T16:28:12.963Z,66.32
2023-04-17T16:43:03.945Z,65.44
2023-04-17T16:57:57.174Z,66.47
2023-04-17T17:12:49.920Z,66.85
2023-04-17T17:27:43.287Z,67.47
2023-04-17T17:42:36.833Z,68.54
2023-04-17T17:57:33.012Z,68.48
2023-04-17T18:12:32.627Z,69.51
2023-04-17T18:27:20.907Z,70.10
2023-04-17T18:42:12.012Z,70.01
2023-04-17T18:57:02.701Z,68.36
2023-04-17T19:11:53.028Z,67.26
2023-04-17T19:26:43.845Z,67.14
2023-04-17T19:41:35.964Z,66.35
2023-04-17T19:56:26.866Z,66.66
2023-04-17T20:26:40.321Z,66.25
2023-04-17T20:41:32.092Z,66.27
2023-04-17T20:56:26.220Z,66.48
2023-04-17T21:26:07.131Z,67.60
2023-04-17T21:40:59.110Z,67.63
2023-04-17T21:55:51.845Z,68.38
2023-04-17T22:10:44.302Z,69.54
2023-04-17T22:25:35.284Z,70.15
2023-04-17T22:40:26.446Z,70.96
2023-04-17T22:55:17.329Z,71.84
2023-04-17T23:10:09.191Z,72.84
2023-04-17T23:40:06.556Z,75.16
2023-04-17T23:54:58.986Z,75.66
